EDLP/PAD METAR and TAF weather

Enter ICAO airport designator
Station Type Date Time Source
EDLP METAR 2019/08/25 03:20 UTC NOAA

EDLP 250320Z 15006KT 130V290 CAVOK 19/12 Q1019


Station Type Date Time Source
EDLP Decoded METAR 2019/08/25 03:20 UTC NOAA

Station name not available
Aug 24, 2019 - 11:20 PM EDT / 2019.08.25 0320 UTC
Wind: from the SSE (150 degrees) at 7 MPH (6 KT) (direction variable):0
Visibility: greater than 7 mile(s):0
Temperature: 66 F (19 C)
Dew Point: 53 F (12 C)
Relative Humidity: 63%
Pressure (altimeter): 30.09 in. Hg (1019 hPa)
ob: EDLP 250320Z 15006KT 130V290 CAVOK 19/12 Q1019
cycle: 3

Station Type Date Time Source
EDLP TAF 2019/08/24 18:27 UTC NOAA

TAF EDLP 241700Z 2418/2518 10007KT CAVOK PROB30
TEMPO 2514/2518 4000 TSRA BKN025CB

Example: see airport list